sensor_id;sensor_type;location;lat;lon;timestamp;P1;durP1;ratioP1;P2;durP2;ratioP2
17141;SDS011;32805;53.556;9.944;2023-04-12T00:01:29;12.55;;;7.70;;
17141;SDS011;32805;53.556;9.944;2023-04-12T00:03:57;12.98;;;8.10;;
17141;SDS011;32805;53.556;9.944;2023-04-12T00:06:25;11.43;;;7.38;;
17141;SDS011;32805;53.556;9.944;2023-04-12T00:08:59;10.75;;;7.85;;
17141;SDS011;32805;53.556;9.944;2023-04-12T00:11:27;12.20;;;7.72;;
17141;SDS011;32805;53.556;9.944;2023-04-12T00:13:55;10.90;;;7.07;;
17141;SDS011;32805;53.556;9.944;2023-04-12T00:16:23;11.10;;;7.95;;
17141;SDS011;32805;53.556;9.944;2023-04-12T00:18:51;14.05;;;8.85;;
17141;SDS011;32805;53.556;9.944;2023-04-12T00:21:18;9.35;;;7.45;;
17141;SDS011;32805;53.556;9.944;2023-04-12T00:23:49;11.80;;;8.38;;
17141;SDS011;32805;53.556;9.944;2023-04-12T00:26:18;14.85;;;9.00;;
17141;SDS011;32805;53.556;9.944;2023-04-12T00:28:47;11.50;;;8.43;;
17141;SDS011;32805;53.556;9.944;2023-04-12T00:31:17;12.27;;;6.88;;
17141;SDS011;32805;53.556;9.944;2023-04-12T00:33:45;12.48;;;8.10;;
17141;SDS011;32805;53.556;9.944;2023-04-12T00:36:13;10.13;;;7.43;;
17141;SDS011;32805;53.556;9.944;2023-04-12T00:38:41;11.32;;;7.38;;
17141;SDS011;32805;53.556;9.944;2023-04-12T00:41:11;12.30;;;7.35;;
17141;SDS011;32805;53.556;9.944;2023-04-12T00:43:40;8.25;;;6.47;;
17141;SDS011;32805;53.556;9.944;2023-04-12T00:46:08;9.15;;;6.78;;
17141;SDS011;32805;53.556;9.944;2023-04-12T00:48:36;9.05;;;6.43;;
17141;SDS011;32805;53.556;9.944;2023-04-12T00:51:05;11.25;;;6.45;;
17141;SDS011;32805;53.556;9.944;2023-04-12T00:53:34;11.60;;;6.65;;
17141;SDS011;32805;53.556;9.944;2023-04-12T00:56:04;7.88;;;6.03;;
17141;SDS011;32805;53.556;9.944;2023-04-12T00:58:32;12.50;;;6.55;;
17141;SDS011;32805;53.556;9.944;2023-04-12T01:01:01;8.88;;;5.82;;
17141;SDS011;32805;53.556;9.944;2023-04-12T01:03:29;7.38;;;5.38;;
17141;SDS011;32805;53.556;9.944;2023-04-12T01:06:03;8.65;;;5.13;;
17141;SDS011;32805;53.556;9.944;2023-04-12T01:08:42;7.30;;;5.38;;
17141;SDS011;32805;53.556;9.944;2023-04-12T01:11:24;6.25;;;4.95;;
17141;SDS011;32805;53.556;9.944;2023-04-12T01:14:02;8.02;;;5.43;;
17141;SDS011;32805;53.556;9.944;2023-04-12T01:16:37;10.80;;;5.47;;
17141;SDS011;32805;53.556;9.944;2023-04-12T01:19:11;7.85;;;5.40;;
17141;SDS011;32805;53.556;9.944;2023-04-12T01:22:00;8.10;;;5.55;;
17141;SDS011;32805;53.556;9.944;2023-04-12T01:24:42;5.15;;;4.50;;
17141;SDS011;32805;53.556;9.944;2023-04-12T01:27:24;6.05;;;4.53;;
17141;SDS011;32805;53.556;9.944;2023-04-12T01:30:00;4.88;;;4.35;;
17141;SDS011;32805;53.556;9.944;2023-04-12T01:32:33;4.93;;;4.13;;
17141;SDS011;32805;53.556;9.944;2023-04-12T01:35:03;5.60;;;4.60;;
17141;SDS011;32805;53.556;9.944;2023-04-12T01:37:34;7.57;;;5.15;;
17141;SDS011;32805;53.556;9.944;2023-04-12T01:40:03;8.50;;;5.03;;
17141;SDS011;32805;53.556;9.944;2023-04-12T01:42:33;5.80;;;4.15;;
17141;SDS011;32805;53.556;9.944;2023-04-12T01:45:01;4.90;;;4.22;;
17141;SDS011;32805;53.556;9.944;2023-04-12T01:47:29;5.07;;;4.57;;
17141;SDS011;32805;53.556;9.944;2023-04-12T01:49:58;7.72;;;4.68;;
17141;SDS011;32805;53.556;9.944;2023-04-12T01:52:35;5.68;;;4.07;;
17141;SDS011;32805;53.556;9.944;2023-04-12T01:55:07;6.03;;;4.22;;
17141;SDS011;32805;53.556;9.944;2023-04-12T01:57:40;9.00;;;4.30;;
17141;SDS011;32805;53.556;9.944;2023-04-12T02:00:10;5.60;;;4.60;;
17141;SDS011;32805;53.556;9.944;2023-04-12T02:02:39;10.27;;;4.40;;
17141;SDS011;32805;53.556;9.944;2023-04-12T02:05:07;7.75;;;4.72;;
17141;SDS011;32805;53.556;9.944;2023-04-12T02:07:36;7.47;;;4.70;;
17141;SDS011;32805;53.556;9.944;2023-04-12T02:10:05;6.88;;;4.47;;
17141;SDS011;32805;53.556;9.944;2023-04-12T02:12:33;7.32;;;4.93;;
17141;SDS011;32805;53.556;9.944;2023-04-12T02:15:02;6.55;;;4.50;;
17141;SDS011;32805;53.556;9.944;2023-04-12T02:17:33;5.93;;;4.68;;
17141;SDS011;32805;53.556;9.944;2023-04-12T02:20:02;8.30;;;5.45;;
17141;SDS011;32805;53.556;9.944;2023-04-12T02:22:32;8.70;;;5.72;;
17141;SDS011;32805;53.556;9.944;2023-04-12T02:25:00;10.98;;;5.93;;
17141;SDS011;32805;53.556;9.944;2023-04-12T02:27:28;12.73;;;4.72;;
17141;SDS011;32805;53.556;9.944;2023-04-12T02:29:55;7.22;;;4.78;;
17141;SDS011;32805;53.556;9.944;2023-04-12T02:32:25;6.72;;;5.03;;
17141;SDS011;32805;53.556;9.944;2023-04-12T02:34:53;7.43;;;4.80;;
17141;SDS011;32805;53.556;9.944;2023-04-12T02:37:24;6.57;;;4.32;;
17141;SDS011;32805;53.556;9.944;2023-04-12T02:39:52;5.97;;;3.97;;
17141;SDS011;32805;53.556;9.944;2023-04-12T02:42:23;6.63;;;4.63;;
17141;SDS011;32805;53.556;9.944;2023-04-12T02:44:50;7.78;;;4.22;;
17141;SDS011;32805;53.556;9.944;2023-04-12T02:47:18;5.03;;;4.20;;
17141;SDS011;32805;53.556;9.944;2023-04-12T02:49:49;5.13;;;4.38;;
17141;SDS011;32805;53.556;9.944;2023-04-12T02:52:18;7.30;;;4.40;;
17141;SDS011;32805;53.556;9.944;2023-04-12T02:54:58;7.90;;;4.15;;
17141;SDS011;32805;53.556;9.944;2023-04-12T02:57:26;6.50;;;4.00;;
17141;SDS011;32805;53.556;9.944;2023-04-12T02:59:54;6.28;;;3.92;;
17141;SDS011;32805;53.556;9.944;2023-04-12T03:02:25;5.32;;;3.60;;
17141;SDS011;32805;53.556;9.944;2023-04-12T03:05:00;6.65;;;3.50;;
17141;SDS011;32805;53.556;9.944;2023-04-12T03:07:36;6.30;;;3.53;;
17141;SDS011;32805;53.556;9.944;2023-04-12T03:10:06;6.90;;;4.13;;
17141;SDS011;32805;53.556;9.944;2023-04-12T03:12:41;8.48;;;4.05;;
17141;SDS011;32805;53.556;9.944;2023-04-12T03:15:18;7.30;;;3.95;;
17141;SDS011;32805;53.556;9.944;2023-04-12T03:17:50;8.48;;;4.40;;
17141;SDS011;32805;53.556;9.944;2023-04-12T03:20:22;6.82;;;4.43;;
17141;SDS011;32805;53.556;9.944;2023-04-12T03:22:58;6.93;;;4.30;;
17141;SDS011;32805;53.556;9.944;2023-04-12T03:25:28;8.35;;;4.60;;
17141;SDS011;32805;53.556;9.944;2023-04-12T03:28:03;6.38;;;3.92;;
17141;SDS011;32805;53.556;9.944;2023-04-12T03:30:44;8.45;;;3.80;;
17141;SDS011;32805;53.556;9.944;2023-04-12T03:33:13;6.30;;;3.83;;
17141;SDS011;32805;53.556;9.944;2023-04-12T03:35:43;8.00;;;4.78;;
17141;SDS011;32805;53.556;9.944;2023-04-12T03:38:13;9.85;;;4.40;;
17141;SDS011;32805;53.556;9.944;2023-04-12T03:40:41;9.77;;;4.70;;
17141;SDS011;32805;53.556;9.944;2023-04-12T03:43:09;7.85;;;4.43;;
17141;SDS011;32805;53.556;9.944;2023-04-12T03:45:37;5.95;;;3.83;;
17141;SDS011;32805;53.556;9.944;2023-04-12T03:48:05;7.40;;;3.60;;
17141;SDS011;32805;53.556;9.944;2023-04-12T03:50:40;10.15;;;4.03;;
17141;SDS011;32805;53.556;9.944;2023-04-12T03:53:16;6.95;;;4.05;;
17141;SDS011;32805;53.556;9.944;2023-04-12T03:55:45;4.15;;;3.58;;
17141;SDS011;32805;53.556;9.944;2023-04-12T03:58:14;6.43;;;3.65;;
17141;SDS011;32805;53.556;9.944;2023-04-12T04:00:43;7.15;;;4.20;;
17141;SDS011;32805;53.556;9.944;2023-04-12T04:03:11;9.75;;;4.70;;
17141;SDS011;32805;53.556;9.944;2023-04-12T04:06:01;6.40;;;4.10;;
17141;SDS011;32805;53.556;9.944;2023-04-12T04:08:31;9.05;;;4.20;;
17141;SDS011;32805;53.556;9.944;2023-04-12T04:10:59;5.75;;;3.30;;
17141;SDS011;32805;53.556;9.944;2023-04-12T04:13:34;5.60;;;3.50;;
17141;SDS011;32805;53.556;9.944;2023-04-12T04:16:05;5.72;;;3.42;;
17141;SDS011;32805;53.556;9.944;2023-04-12T04:18:36;6.07;;;3.00;;
17141;SDS011;32805;53.556;9.944;2023-04-12T04:21:07;9.75;;;3.80;;
17141;SDS011;32805;53.556;9.944;2023-04-12T04:23:37;5.97;;;3.63;;
17141;SDS011;32805;53.556;9.944;2023-04-12T04:26:06;6.05;;;3.28;;
17141;SDS011;32805;53.556;9.944;2023-04-12T04:28:42;6.97;;;3.15;;
17141;SDS011;32805;53.556;9.944;2023-04-12T04:31:15;4.95;;;4.07;;
17141;SDS011;32805;53.556;9.944;2023-04-12T04:33:47;6.68;;;4.57;;
17141;SDS011;32805;53.556;9.944;2023-04-12T04:36:17;5.57;;;3.95;;
17141;SDS011;32805;53.556;9.944;2023-04-12T04:38:52;6.07;;;3.65;;
17141;SDS011;32805;53.556;9.944;2023-04-12T04:41:34;5.53;;;3.10;;
17141;SDS011;32805;53.556;9.944;2023-04-12T04:44:06;6.00;;;3.10;;
17141;SDS011;32805;53.556;9.944;2023-04-12T04:46:40;10.48;;;3.35;;
17141;SDS011;32805;53.556;9.944;2023-04-12T04:49:08;6.97;;;3.08;;
17141;SDS011;32805;53.556;9.944;2023-04-12T04:51:36;5.53;;;2.70;;
17141;SDS011;32805;53.556;9.944;2023-04-12T04:54:05;6.93;;;2.85;;
17141;SDS011;32805;53.556;9.944;2023-04-12T04:56:36;4.68;;;2.47;;
17141;SDS011;32805;53.556;9.944;2023-04-12T04:59:03;4.40;;;2.45;;
17141;SDS011;32805;53.556;9.944;2023-04-12T05:01:32;4.50;;;2.55;;
17141;SDS011;32805;53.556;9.944;2023-04-12T05:04:02;7.28;;;3.28;;
17141;SDS011;32805;53.556;9.944;2023-04-12T05:06:30;3.38;;;2.42;;
17141;SDS011;32805;53.556;9.944;2023-04-12T05:09:00;5.00;;;2.60;;
17141;SDS011;32805;53.556;9.944;2023-04-12T05:11:32;10.25;;;3.10;;
17141;SDS011;32805;53.556;9.944;2023-04-12T05:14:02;4.70;;;2.72;;
17141;SDS011;32805;53.556;9.944;2023-04-12T05:16:30;5.30;;;2.22;;
17141;SDS011;32805;53.556;9.944;2023-04-12T05:18:57;5.03;;;2.40;;
17141;SDS011;32805;53.556;9.944;2023-04-12T05:21:25;5.38;;;2.53;;
17141;SDS011;32805;53.556;9.944;2023-04-12T05:23:54;4.57;;;2.63;;
17141;SDS011;32805;53.556;9.944;2023-04-12T05:26:21;3.13;;;2.30;;
17141;SDS011;32805;53.556;9.944;2023-04-12T05:29:06;3.10;;;2.35;;
17141;SDS011;32805;53.556;9.944;2023-04-12T05:31:34;3.30;;;2.17;;
17141;SDS011;32805;53.556;9.944;2023-04-12T05:34:05;4.57;;;2.70;;
17141;SDS011;32805;53.556;9.944;2023-04-12T05:36:39;4.57;;;2.50;;
17141;SDS011;32805;53.556;9.944;2023-04-12T05:39:07;2.97;;;2.40;;
17141;SDS011;32805;53.556;9.944;2023-04-12T05:41:35;5.75;;;2.80;;
17141;SDS011;32805;53.556;9.944;2023-04-12T05:44:02;4.38;;;2.63;;
17141;SDS011;32805;53.556;9.944;2023-04-12T05:46:32;4.65;;;2.30;;
17141;SDS011;32805;53.556;9.944;2023-04-12T05:49:00;6.55;;;3.20;;
17141;SDS011;32805;53.556;9.944;2023-04-12T05:51:28;5.85;;;2.70;;
17141;SDS011;32805;53.556;9.944;2023-04-12T05:54:11;8.95;;;3.05;;
17141;SDS011;32805;53.556;9.944;2023-04-12T05:56:39;6.22;;;2.83;;
17141;SDS011;32805;53.556;9.944;2023-04-12T05:59:07;7.30;;;2.17;;
17141;SDS011;32805;53.556;9.944;2023-04-12T06:01:38;5.85;;;2.50;;
17141;SDS011;32805;53.556;9.944;2023-04-12T06:04:08;4.68;;;2.55;;
17141;SDS011;32805;53.556;9.944;2023-04-12T06:06:36;4.93;;;2.55;;
17141;SDS011;32805;53.556;9.944;2023-04-12T06:09:04;3.65;;;1.95;;
17141;SDS011;32805;53.556;9.944;2023-04-12T06:11:32;2.45;;;2.22;;
17141;SDS011;32805;53.556;9.944;2023-04-12T06:14:00;5.32;;;2.58;;
17141;SDS011;32805;53.556;9.944;2023-04-12T06:16:28;5.05;;;2.58;;
17141;SDS011;32805;53.556;9.944;2023-04-12T06:18:58;6.85;;;3.00;;
17141;SDS011;32805;53.556;9.944;2023-04-12T06:21:26;2.58;;;2.00;;
17141;SDS011;32805;53.556;9.944;2023-04-12T06:23:54;2.55;;;2.20;;
17141;SDS011;32805;53.556;9.944;2023-04-12T06:26:22;6.13;;;2.30;;
17141;SDS011;32805;53.556;9.944;2023-04-12T06:28:50;4.43;;;2.28;;
17141;SDS011;32805;53.556;9.944;2023-04-12T06:31:18;3.38;;;2.58;;
17141;SDS011;32805;53.556;9.944;2023-04-12T06:33:46;3.95;;;2.03;;
17141;SDS011;32805;53.556;9.944;2023-04-12T06:36:17;3.22;;;2.20;;
17141;SDS011;32805;53.556;9.944;2023-04-12T06:38:44;3.65;;;2.05;;
17141;SDS011;32805;53.556;9.944;2023-04-12T06:41:13;5.75;;;2.40;;
17141;SDS011;32805;53.556;9.944;2023-04-12T06:43:41;5.78;;;2.42;;
17141;SDS011;32805;53.556;9.944;2023-04-12T06:46:09;5.57;;;2.83;;
17141;SDS011;32805;53.556;9.944;2023-04-12T06:48:36;4.95;;;2.78;;
17141;SDS011;32805;53.556;9.944;2023-04-12T06:51:06;5.07;;;2.50;;
17141;SDS011;32805;53.556;9.944;2023-04-12T06:53:36;3.40;;;2.38;;
17141;SDS011;32805;53.556;9.944;2023-04-12T06:56:04;3.90;;;2.20;;
17141;SDS011;32805;53.556;9.944;2023-04-12T06:58:32;2.85;;;2.10;;
17141;SDS011;32805;53.556;9.944;2023-04-12T07:01:03;2.80;;;2.08;;
17141;SDS011;32805;53.556;9.944;2023-04-12T07:03:32;3.50;;;2.10;;
17141;SDS011;32805;53.556;9.944;2023-04-12T07:06:01;4.22;;;2.40;;
17141;SDS011;32805;53.556;9.944;2023-04-12T07:08:50;3.15;;;2.20;;
17141;SDS011;32805;53.556;9.944;2023-04-12T07:11:18;2.88;;;2.08;;
17141;SDS011;32805;53.556;9.944;2023-04-12T07:13:48;3.40;;;2.08;;
17141;SDS011;32805;53.556;9.944;2023-04-12T07:16:16;4.47;;;2.13;;
17141;SDS011;32805;53.556;9.944;2023-04-12T07:18:44;5.07;;;2.25;;
17141;SDS011;32805;53.556;9.944;2023-04-12T07:21:12;5.18;;;2.10;;
17141;SDS011;32805;53.556;9.944;2023-04-12T07:23:42;4.90;;;2.22;;
17141;SDS011;32805;53.556;9.944;2023-04-12T07:26:13;5.80;;;2.47;;
17141;SDS011;32805;53.556;9.944;2023-04-12T07:28:41;4.03;;;2.17;;
17141;SDS011;32805;53.556;9.944;2023-04-12T07:31:08;3.55;;;1.83;;
17141;SDS011;32805;53.556;9.944;2023-04-12T07:33:36;3.20;;;1.98;;
17141;SDS011;32805;53.556;9.944;2023-04-12T07:36:08;4.22;;;2.10;;
17141;SDS011;32805;53.556;9.944;2023-04-12T07:38:36;3.35;;;2.38;;
17141;SDS011;32805;53.556;9.944;2023-04-12T07:41:04;2.70;;;2.13;;
17141;SDS011;32805;53.556;9.944;2023-04-12T07:43:33;5.03;;;2.20;;
17141;SDS011;32805;53.556;9.944;2023-04-12T07:46:01;4.90;;;2.13;;
17141;SDS011;32805;53.556;9.944;2023-04-12T07:48:33;4.90;;;2.10;;
17141;SDS011;32805;53.556;9.944;2023-04-12T07:51:01;4.28;;;2.38;;
17141;SDS011;32805;53.556;9.944;2023-04-12T07:53:29;2.83;;;2.08;;
17141;SDS011;32805;53.556;9.944;2023-04-12T07:55:56;6.00;;;2.58;;
17141;SDS011;32805;53.556;9.944;2023-04-12T07:58:24;7.10;;;2.83;;
17141;SDS011;32805;53.556;9.944;2023-04-12T08:00:53;5.38;;;2.50;;
17141;SDS011;32805;53.556;9.944;2023-04-12T08:03:25;2.45;;;2.13;;
17141;SDS011;32805;53.556;9.944;2023-04-12T08:05:53;12.15;;;4.93;;
17141;SDS011;32805;53.556;9.944;2023-04-12T08:08:20;11.73;;;5.60;;
17141;SDS011;32805;53.556;9.944;2023-04-12T08:10:49;3.88;;;2.63;;
17141;SDS011;32805;53.556;9.944;2023-04-12T08:13:17;4.63;;;2.92;;
17141;SDS011;32805;53.556;9.944;2023-04-12T08:15:45;11.73;;;5.50;;
17141;SDS011;32805;53.556;9.944;2023-04-12T08:18:15;7.82;;;4.68;;
17141;SDS011;32805;53.556;9.944;2023-04-12T08:20:42;5.90;;;2.90;;
17141;SDS011;32805;53.556;9.944;2023-04-12T08:23:10;5.63;;;3.30;;
17141;SDS011;32805;53.556;9.944;2023-04-12T08:25:38;5.60;;;2.80;;
17141;SDS011;32805;53.556;9.944;2023-04-12T08:28:06;5.53;;;2.63;;
17141;SDS011;32805;53.556;9.944;2023-04-12T08:30:34;7.88;;;3.08;;
17141;SDS011;32805;53.556;9.944;2023-04-12T08:33:02;6.10;;;3.38;;
17141;SDS011;32805;53.556;9.944;2023-04-12T08:35:31;4.85;;;2.90;;
17141;SDS011;32805;53.556;9.944;2023-04-12T08:37:59;5.18;;;2.97;;
17141;SDS011;32805;53.556;9.944;2023-04-12T08:40:32;6.55;;;2.92;;
17141;SDS011;32805;53.556;9.944;2023-04-12T08:43:00;4.38;;;2.20;;
17141;SDS011;32805;53.556;9.944;2023-04-12T08:45:32;8.50;;;3.60;;
17141;SDS011;32805;53.556;9.944;2023-04-12T08:48:02;6.45;;;2.97;;
17141;SDS011;32805;53.556;9.944;2023-04-12T08:50:33;5.57;;;3.20;;
17141;SDS011;32805;53.556;9.944;2023-04-12T08:53:00;5.03;;;2.35;;
17141;SDS011;32805;53.556;9.944;2023-04-12T08:55:29;15.90;;;7.68;;
17141;SDS011;32805;53.556;9.944;2023-04-12T08:57:57;8.80;;;4.25;;
17141;SDS011;32805;53.556;9.944;2023-04-12T09:00:25;5.75;;;3.65;;
17141;SDS011;32805;53.556;9.944;2023-04-12T09:02:53;7.32;;;3.95;;
17141;SDS011;32805;53.556;9.944;2023-04-12T09:05:25;5.10;;;3.35;;
17141;SDS011;32805;53.556;9.944;2023-04-12T09:07:56;3.25;;;2.40;;
17141;SDS011;32805;53.556;9.944;2023-04-12T09:10:30;3.55;;;2.72;;
17141;SDS011;32805;53.556;9.944;2023-04-12T09:13:00;5.32;;;2.95;;
17141;SDS011;32805;53.556;9.944;2023-04-12T09:15:29;5.55;;;3.20;;
17141;SDS011;32805;53.556;9.944;2023-04-12T09:18:04;2.83;;;2.60;;
17141;SDS011;32805;53.556;9.944;2023-04-12T09:20:33;7.85;;;3.33;;
17141;SDS011;32805;53.556;9.944;2023-04-12T09:23:18;4.57;;;2.60;;
17141;SDS011;32805;53.556;9.944;2023-04-12T09:25:47;8.48;;;2.60;;
17141;SDS011;32805;53.556;9.944;2023-04-12T09:28:19;5.13;;;2.50;;
17141;SDS011;32805;53.556;9.944;2023-04-12T09:30:48;7.25;;;3.88;;
17141;SDS011;32805;53.556;9.944;2023-04-12T09:33:20;7.25;;;4.10;;
17141;SDS011;32805;53.556;9.944;2023-04-12T09:35:49;6.07;;;3.58;;
17141;SDS011;32805;53.556;9.944;2023-04-12T09:38:18;5.15;;;2.80;;
17141;SDS011;32805;53.556;9.944;2023-04-12T09:40:46;3.55;;;2.53;;
17141;SDS011;32805;53.556;9.944;2023-04-12T09:43:14;3.67;;;2.42;;
17141;SDS011;32805;53.556;9.944;2023-04-12T09:45:42;4.50;;;2.50;;
17141;SDS011;32805;53.556;9.944;2023-04-12T09:48:17;11.98;;;5.22;;
17141;SDS011;32805;53.556;9.944;2023-04-12T09:50:45;7.63;;;4.88;;
17141;SDS011;32805;53.556;9.944;2023-04-12T09:53:14;4.70;;;2.75;;
17141;SDS011;32805;53.556;9.944;2023-04-12T09:55:45;6.47;;;2.72;;
17141;SDS011;32805;53.556;9.944;2023-04-12T09:58:18;3.92;;;2.28;;
17141;SDS011;32805;53.556;9.944;2023-04-12T10:00:49;5.22;;;2.90;;
17141;SDS011;32805;53.556;9.944;2023-04-12T10:03:17;3.55;;;2.50;;
17141;SDS011;32805;53.556;9.944;2023-04-12T10:05:45;2.97;;;2.30;;
17141;SDS011;32805;53.556;9.944;2023-04-12T10:08:14;5.10;;;2.60;;
17141;SDS011;32805;53.556;9.944;2023-04-12T10:10:44;6.80;;;2.35;;
17141;SDS011;32805;53.556;9.944;2023-04-12T10:13:12;3.88;;;2.50;;
17141;SDS011;32805;53.556;9.944;2023-04-12T10:15:41;5.15;;;2.50;;
17141;SDS011;32805;53.556;9.944;2023-04-12T10:18:11;3.97;;;2.00;;
17141;SDS011;32805;53.556;9.944;2023-04-12T10:20:40;4.93;;;2.50;;
17141;SDS011;32805;53.556;9.944;2023-04-12T10:23:13;4.15;;;2.33;;
17141;SDS011;32805;53.556;9.944;2023-04-12T10:25:41;3.47;;;2.00;;
17141;SDS011;32805;53.556;9.944;2023-04-12T10:28:14;3.50;;;2.03;;
17141;SDS011;32805;53.556;9.944;2023-04-12T10:30:44;2.03;;;1.83;;
17141;SDS011;32805;53.556;9.944;2023-04-12T10:33:13;6.20;;;2.55;;
17141;SDS011;32805;53.556;9.944;2023-04-12T10:35:49;3.35;;;1.80;;
17141;SDS011;32805;53.556;9.944;2023-04-12T10:38:20;5.55;;;2.38;;
17141;SDS011;32805;53.556;9.944;2023-04-12T10:41:07;3.78;;;2.13;;
17141;SDS011;32805;53.556;9.944;2023-04-12T10:43:38;6.88;;;2.28;;
17141;SDS011;32805;53.556;9.944;2023-04-12T10:46:05;5.32;;;2.22;;
17141;SDS011;32805;53.556;9.944;2023-04-12T10:48:33;7.13;;;1.80;;
17141;SDS011;32805;53.556;9.944;2023-04-12T10:53:48;4.25;;;1.77;;
17141;SDS011;32805;53.556;9.944;2023-04-12T10:56:35;8.50;;;2.80;;
17141;SDS011;32805;53.556;9.944;2023-04-12T10:59:11;3.15;;;1.92;;
17141;SDS011;32805;53.556;9.944;2023-04-12T11:02:06;2.75;;;2.25;;
17141;SDS011;32805;53.556;9.944;2023-04-12T11:04:36;4.30;;;2.20;;
17141;SDS011;32805;53.556;9.944;2023-04-12T11:07:09;5.35;;;2.60;;
17141;SDS011;32805;53.556;9.944;2023-04-12T11:09:38;8.68;;;2.67;;
17141;SDS011;32805;53.556;9.944;2023-04-12T11:12:13;6.00;;;2.20;;
17141;SDS011;32805;53.556;9.944;2023-04-12T11:14:43;4.68;;;2.08;;
17141;SDS011;32805;53.556;9.944;2023-04-12T11:17:21;3.45;;;2.20;;
17141;SDS011;32805;53.556;9.944;2023-04-12T11:19:53;4.65;;;2.63;;
17141;SDS011;32805;53.556;9.944;2023-04-12T11:22:23;5.78;;;2.80;;
17141;SDS011;32805;53.556;9.944;2023-04-12T11:24:54;4.80;;;2.40;;
17141;SDS011;32805;53.556;9.944;2023-04-12T11:27:24;4.93;;;2.53;;
17141;SDS011;32805;53.556;9.944;2023-04-12T11:29:53;3.67;;;2.17;;
17141;SDS011;32805;53.556;9.944;2023-04-12T11:32:22;3.47;;;2.38;;
17141;SDS011;32805;53.556;9.944;2023-04-12T11:34:53;4.28;;;2.50;;
17141;SDS011;32805;53.556;9.944;2023-04-12T11:37:22;5.10;;;2.83;;
17141;SDS011;32805;53.556;9.944;2023-04-12T11:39:54;5.55;;;3.28;;
17141;SDS011;32805;53.556;9.944;2023-04-12T11:42:24;6.45;;;2.55;;
17141;SDS011;32805;53.556;9.944;2023-04-12T11:44:53;4.03;;;2.72;;
17141;SDS011;32805;53.556;9.944;2023-04-12T11:47:28;7.03;;;3.25;;
17141;SDS011;32805;53.556;9.944;2023-04-12T11:49:58;4.22;;;2.90;;
17141;SDS011;32805;53.556;9.944;2023-04-12T11:52:26;3.83;;;2.65;;
17141;SDS011;32805;53.556;9.944;2023-04-12T11:54:55;5.28;;;2.80;;
17141;SDS011;32805;53.556;9.944;2023-04-12T11:57:25;4.50;;;3.10;;
17141;SDS011;32805;53.556;9.944;2023-04-12T11:59:55;3.80;;;3.13;;
17141;SDS011;32805;53.556;9.944;2023-04-12T12:02:23;3.35;;;2.97;;
17141;SDS011;32805;53.556;9.944;2023-04-12T12:04:59;6.18;;;3.30;;
17141;SDS011;32805;53.556;9.944;2023-04-12T12:07:28;6.22;;;3.85;;
17141;SDS011;32805;53.556;9.944;2023-04-12T12:09:56;8.32;;;4.55;;
17141;SDS011;32805;53.556;9.944;2023-04-12T12:12:25;5.40;;;4.03;;
17141;SDS011;32805;53.556;9.944;2023-04-12T12:14:53;5.20;;;3.35;;
17141;SDS011;32805;53.556;9.944;2023-04-12T12:17:25;6.25;;;3.70;;
17141;SDS011;32805;53.556;9.944;2023-04-12T12:19:55;4.40;;;3.33;;
17141;SDS011;32805;53.556;9.944;2023-04-12T12:22:25;3.50;;;3.20;;
17141;SDS011;32805;53.556;9.944;2023-04-12T12:24:54;4.13;;;2.95;;
17141;SDS011;32805;53.556;9.944;2023-04-12T12:27:24;3.60;;;2.92;;
17141;SDS011;32805;53.556;9.944;2023-04-12T12:30:05;6.53;;;3.55;;
17141;SDS011;32805;53.556;9.944;2023-04-12T12:32:36;4.80;;;3.22;;
17141;SDS011;32805;53.556;9.944;2023-04-12T12:35:06;3.63;;;3.05;;
17141;SDS011;32805;53.556;9.944;2023-04-12T12:37:37;4.07;;;3.35;;
17141;SDS011;32805;53.556;9.944;2023-04-12T12:40:14;6.00;;;3.47;;
17141;SDS011;32805;53.556;9.944;2023-04-12T12:42:45;6.45;;;3.33;;
17141;SDS011;32805;53.556;9.944;2023-04-12T12:45:15;5.00;;;3.03;;
17141;SDS011;32805;53.556;9.944;2023-04-12T12:47:45;4.45;;;2.88;;
17141;SDS011;32805;53.556;9.944;2023-04-12T12:50:18;3.75;;;2.85;;
17141;SDS011;32805;53.556;9.944;2023-04-12T12:52:51;5.47;;;2.83;;
17141;SDS011;32805;53.556;9.944;2023-04-12T12:55:21;7.80;;;3.83;;
17141;SDS011;32805;53.556;9.944;2023-04-12T12:57:51;5.47;;;3.35;;
17141;SDS011;32805;53.556;9.944;2023-04-12T13:00:33;4.63;;;2.88;;
17141;SDS011;32805;53.556;9.944;2023-04-12T13:03:01;4.95;;;3.15;;
17141;SDS011;32805;53.556;9.944;2023-04-12T13:05:30;5.32;;;3.45;;
17141;SDS011;32805;53.556;9.944;2023-04-12T13:07:59;4.40;;;2.90;;
17141;SDS011;32805;53.556;9.944;2023-04-12T13:10:27;5.22;;;3.50;;
17141;SDS011;32805;53.556;9.944;2023-04-12T13:12:54;4.18;;;3.10;;
17141;SDS011;32805;53.556;9.944;2023-04-12T13:15:22;5.90;;;3.20;;
17141;SDS011;32805;53.556;9.944;2023-04-12T13:17:50;4.05;;;2.90;;
17141;SDS011;32805;53.556;9.944;2023-04-12T13:20:19;5.20;;;3.13;;
17141;SDS011;32805;53.556;9.944;2023-04-12T13:22:46;4.55;;;3.83;;
17141;SDS011;32805;53.556;9.944;2023-04-12T13:25:16;3.83;;;3.42;;
17141;SDS011;32805;53.556;9.944;2023-04-12T13:27:46;4.82;;;3.58;;
17141;SDS011;32805;53.556;9.944;2023-04-12T13:30:16;4.28;;;2.90;;
17141;SDS011;32805;53.556;9.944;2023-04-12T13:32:46;3.58;;;2.40;;
17141;SDS011;32805;53.556;9.944;2023-04-12T13:35:16;5.50;;;2.60;;
17141;SDS011;32805;53.556;9.944;2023-04-12T13:37:44;3.40;;;2.70;;
17141;SDS011;32805;53.556;9.944;2023-04-12T13:40:12;4.65;;;3.25;;
17141;SDS011;32805;53.556;9.944;2023-04-12T13:42:44;5.28;;;2.97;;
17141;SDS011;32805;53.556;9.944;2023-04-12T13:45:11;5.68;;;2.80;;
17141;SDS011;32805;53.556;9.944;2023-04-12T13:47:39;3.60;;;2.50;;
17141;SDS011;32805;53.556;9.944;2023-04-12T13:50:07;6.93;;;3.00;;
17141;SDS011;32805;53.556;9.944;2023-04-12T13:52:37;3.85;;;2.85;;
17141;SDS011;32805;53.556;9.944;2023-04-12T13:55:05;4.88;;;2.53;;
17141;SDS011;32805;53.556;9.944;2023-04-12T13:57:34;4.00;;;2.70;;
17141;SDS011;32805;53.556;9.944;2023-04-12T14:00:03;4.32;;;3.00;;
17141;SDS011;32805;53.556;9.944;2023-04-12T14:02:32;3.25;;;2.30;;
17141;SDS011;32805;53.556;9.944;2023-04-12T14:05:00;3.00;;;2.50;;
17141;SDS011;32805;53.556;9.944;2023-04-12T14:07:28;2.53;;;2.10;;
17141;SDS011;32805;53.556;9.944;2023-04-12T14:09:56;4.05;;;2.45;;
17141;SDS011;32805;53.556;9.944;2023-04-12T14:12:23;2.05;;;1.77;;
17141;SDS011;32805;53.556;9.944;2023-04-12T14:14:51;3.55;;;2.78;;
17141;SDS011;32805;53.556;9.944;2023-04-12T14:17:20;4.45;;;2.95;;
17141;SDS011;32805;53.556;9.944;2023-04-12T14:19:48;6.38;;;2.95;;
17141;SDS011;32805;53.556;9.944;2023-04-12T14:22:16;2.55;;;1.90;;
17141;SDS011;32805;53.556;9.944;2023-04-12T14:24:43;3.15;;;2.05;;
17141;SDS011;32805;53.556;9.944;2023-04-12T14:27:11;3.45;;;2.20;;
17141;SDS011;32805;53.556;9.944;2023-04-12T14:29:41;4.00;;;2.33;;
17141;SDS011;32805;53.556;9.944;2023-04-12T14:32:09;3.40;;;2.10;;
17141;SDS011;32805;53.556;9.944;2023-04-12T14:34:38;2.72;;;2.45;;
17141;SDS011;32805;53.556;9.944;2023-04-12T14:37:08;3.38;;;2.53;;
17141;SDS011;32805;53.556;9.944;2023-04-12T14:39:36;4.60;;;2.22;;
17141;SDS011;32805;53.556;9.944;2023-04-12T14:42:04;4.50;;;2.53;;
17141;SDS011;32805;53.556;9.944;2023-04-12T14:44:32;4.38;;;2.28;;
17141;SDS011;32805;53.556;9.944;2023-04-12T14:46:59;2.40;;;2.17;;
17141;SDS011;32805;53.556;9.944;2023-04-12T14:49:27;5.45;;;2.50;;
17141;SDS011;32805;53.556;9.944;2023-04-12T14:52:00;2.58;;;2.03;;
17141;SDS011;32805;53.556;9.944;2023-04-12T14:54:27;2.97;;;2.30;;
17141;SDS011;32805;53.556;9.944;2023-04-12T14:56:55;4.03;;;2.45;;
17141;SDS011;32805;53.556;9.944;2023-04-12T14:59:23;2.88;;;2.45;;
17141;SDS011;32805;53.556;9.944;2023-04-12T15:01:52;3.95;;;2.22;;
17141;SDS011;32805;53.556;9.944;2023-04-12T15:04:20;2.38;;;2.17;;
17141;SDS011;32805;53.556;9.944;2023-04-12T15:06:48;3.22;;;1.85;;